createdAt,value
2022-11-16T00:01:31.947Z,22.30
2022-11-16T00:04:00.925Z,22.30
2022-11-16T00:06:28.683Z,22.30
2022-11-16T00:09:17.564Z,22.30
2022-11-16T00:11:44.257Z,22.30
2022-11-16T00:14:11.313Z,22.30
2022-11-16T00:16:38.549Z,22.30
2022-11-16T00:19:06.520Z,22.30
2022-11-16T00:21:33.415Z,22.30
2022-11-16T00:24:00.555Z,22.30
2022-11-16T00:26:27.443Z,22.20
2022-11-16T00:28:54.880Z,22.20
2022-11-16T00:31:22.197Z,22.20
2022-11-16T00:33:49.979Z,22.20
2022-11-16T00:36:17.449Z,22.20
2022-11-16T00:38:44.743Z,22.20
2022-11-16T00:41:11.425Z,22.20
2022-11-16T00:43:38.282Z,22.20
2022-11-16T00:46:05.383Z,22.20
2022-11-16T00:48:32.430Z,22.20
2022-11-16T00:50:59.303Z,22.20
2022-11-16T00:53:25.979Z,22.10
2022-11-16T00:55:52.726Z,22.20
2022-11-16T00:58:19.397Z,22.10
2022-11-16T01:00:46.071Z,22.10
2022-11-16T01:03:12.884Z,22.20
2022-11-16T01:05:39.636Z,22.10
2022-11-16T01:08:06.643Z,22.20
2022-11-16T01:10:33.396Z,22.10
2022-11-16T01:13:00.106Z,22.10
2022-11-16T01:15:28.134Z,22.10
2022-11-16T01:17:56.552Z,22.10
2022-11-16T01:20:27.734Z,22.10
2022-11-16T01:22:54.934Z,22.10
2022-11-16T01:25:21.863Z,22.10
2022-11-16T01:27:48.591Z,22.10
2022-11-16T01:30:16.561Z,22.10
2022-11-16T01:32:43.379Z,22.10
2022-11-16T01:35:14.396Z,22.10
2022-11-16T01:37:41.151Z,22.10
2022-11-16T01:40:08.339Z,22.10
2022-11-16T01:42:35.029Z,22.10
2022-11-16T01:45:25.038Z,22.10
2022-11-16T01:47:53.699Z,22.10
2022-11-16T01:50:21.307Z,22.10
2022-11-16T01:52:55.046Z,22.10
2022-11-16T01:55:23.566Z,22.10
2022-11-16T01:57:50.877Z,22.00
2022-11-16T02:00:18.931Z,22.00
2022-11-16T02:02:45.758Z,22.10
2022-11-16T02:05:16.830Z,22.10
2022-11-16T02:08:20.193Z,22.10
2022-11-16T02:10:46.885Z,22.00
2022-11-16T02:13:20.111Z,22.00
2022-11-16T02:15:53.520Z,22.00
2022-11-16T02:18:29.383Z,22.00
2022-11-16T02:20:58.762Z,22.00
2022-11-16T02:23:49.593Z,22.00
2022-11-16T02:26:40.860Z,22.00
2022-11-16T02:29:22.330Z,22.00
2022-11-16T02:32:24.857Z,22.00
2022-11-16T02:34:54.835Z,22.00
2022-11-16T02:37:25.531Z,22.00
2022-11-16T02:39:59.697Z,22.00
2022-11-16T02:42:35.252Z,22.00
2022-11-16T02:45:05.866Z,22.00
2022-11-16T02:47:35.468Z,22.00
2022-11-16T02:50:08.079Z,22.00
2022-11-16T02:52:36.906Z,22.00
2022-11-16T02:55:03.949Z,22.00
2022-11-16T02:57:39.066Z,21.90
2022-11-16T03:00:07.707Z,21.90
2022-11-16T03:02:46.333Z,22.00
2022-11-16T03:05:33.971Z,21.90
2022-11-16T03:08:21.834Z,21.90
2022-11-16T03:11:13.989Z,21.90
2022-11-16T03:13:41.853Z,22.00
2022-11-16T03:16:19.278Z,22.00
2022-11-16T03:18:49.671Z,22.00
2022-11-16T03:21:30.511Z,21.90
2022-11-16T03:23:57.904Z,21.90
2022-11-16T03:26:30.179Z,21.90
2022-11-16T03:29:03.010Z,21.90
2022-11-16T03:31:35.073Z,21.90
2022-11-16T03:34:08.927Z,21.90
2022-11-16T03:36:41.639Z,21.90
2022-11-16T03:39:17.451Z,21.90
2022-11-16T03:41:47.732Z,21.90
2022-11-16T03:44:16.006Z,21.90
2022-11-16T03:46:44.280Z,21.90
2022-11-16T03:49:10.972Z,21.90
2022-11-16T03:51:38.225Z,21.90
2022-11-16T03:54:05.670Z,21.80
2022-11-16T03:56:32.537Z,21.80
2022-11-16T03:58:59.253Z,21.90
2022-11-16T04:01:26.093Z,21.80
2022-11-16T04:03:52.914Z,21.80
2022-11-16T04:06:38.350Z,21.90
2022-11-16T04:09:44.426Z,21.90
2022-11-16T04:12:29.977Z,21.80
2022-11-16T04:15:15.017Z,21.80
2022-11-16T04:18:00.299Z,21.80
2022-11-16T04:20:45.732Z,21.80
2022-11-16T04:23:34.019Z,21.80
2022-11-16T04:26:01.040Z,21.80
2022-11-16T04:28:34.542Z,21.80
2022-11-16T04:31:22.270Z,21.80
2022-11-16T04:34:10.036Z,21.80
2022-11-16T04:36:55.534Z,21.80
2022-11-16T04:39:22.267Z,21.80
2022-11-16T04:42:07.715Z,21.80
2022-11-16T04:44:54.207Z,21.80
2022-11-16T04:47:21.072Z,21.80
2022-11-16T04:49:47.721Z,21.80
2022-11-16T04:52:14.440Z,21.80
2022-11-16T04:54:41.165Z,21.80
2022-11-16T04:57:07.908Z,21.90
2022-11-16T04:59:34.577Z,21.80
2022-11-16T05:02:10.207Z,21.80
2022-11-16T05:04:42.246Z,21.90
2022-11-16T05:07:11.922Z,21.80
2022-11-16T05:09:43.928Z,21.80
2022-11-16T05:12:14.760Z,21.80
2022-11-16T05:14:42.262Z,21.80
2022-11-16T05:17:09.567Z,21.90
2022-11-16T05:19:55.037Z,21.90
2022-11-16T05:22:22.735Z,21.90
2022-11-16T05:24:49.520Z,21.90
2022-11-16T05:27:17.623Z,21.90
2022-11-16T05:29:44.681Z,21.90
2022-11-16T05:32:13.018Z,21.90
2022-11-16T05:34:40.091Z,21.90
2022-11-16T05:37:07.011Z,21.90
2022-11-16T05:39:34.108Z,21.90
2022-11-16T05:42:01.159Z,21.90
2022-11-16T05:44:27.881Z,21.90
2022-11-16T05:46:56.044Z,21.90
2022-11-16T05:49:22.910Z,21.90
2022-11-16T05:51:50.191Z,22.00
2022-11-16T05:54:19.179Z,21.90
2022-11-16T05:56:47.158Z,22.00
2022-11-16T05:59:17.998Z,21.90
2022-11-16T06:01:45.014Z,21.90
2022-11-16T06:04:12.151Z,21.90
2022-11-16T06:06:39.427Z,21.90
2022-11-16T06:09:06.939Z,21.90
2022-11-16T06:11:36.255Z,22.00
2022-11-16T06:14:03.425Z,21.90
2022-11-16T06:16:30.160Z,22.00
2022-11-16T06:18:56.983Z,22.00
2022-11-16T06:21:23.668Z,21.90
2022-11-16T06:23:50.361Z,22.00
2022-11-16T06:26:17.143Z,22.00
2022-11-16T06:28:44.777Z,22.00
2022-11-16T06:31:11.501Z,22.00
2022-11-16T06:33:38.204Z,22.00
2022-11-16T06:36:08.511Z,22.00
2022-11-16T06:38:35.352Z,22.00
2022-11-16T06:41:02.400Z,22.00
2022-11-16T06:43:29.080Z,22.00
2022-11-16T06:45:58.356Z,22.00
2022-11-16T06:48:25.325Z,22.00
2022-11-16T06:50:52.501Z,22.10
2022-11-16T06:53:24.625Z,22.10
2022-11-16T06:55:54.460Z,22.10
2022-11-16T06:58:21.271Z,22.20
2022-11-16T07:00:47.954Z,22.20
2022-11-16T07:03:14.638Z,22.20
2022-11-16T07:05:42.135Z,22.20
2022-11-16T07:08:09.819Z,22.20
2022-11-16T07:10:37.851Z,22.30
2022-11-16T07:13:05.035Z,22.30
2022-11-16T07:15:32.494Z,22.30
2022-11-16T07:18:06.758Z,22.40
2022-11-16T07:20:34.505Z,22.40
2022-11-16T07:23:03.030Z,22.40
2022-11-16T07:25:29.912Z,22.40
2022-11-16T07:27:58.062Z,22.40
2022-11-16T07:30:25.074Z,22.40
2022-11-16T07:32:51.747Z,22.50
2022-11-16T07:35:18.420Z,22.50
2022-11-16T07:37:45.111Z,22.50
2022-11-16T07:40:11.892Z,22.50
2022-11-16T07:42:38.638Z,22.50
2022-11-16T07:45:07.178Z,22.50
2022-11-16T07:47:37.920Z,22.50
2022-11-16T07:50:08.159Z,22.50
2022-11-16T07:52:34.815Z,22.50
2022-11-16T07:55:01.834Z,22.60
2022-11-16T07:57:29.051Z,22.60
2022-11-16T07:59:55.741Z,22.60
2022-11-16T08:02:22.574Z,22.60
2022-11-16T08:04:50.153Z,22.60
2022-11-16T08:07:16.895Z,22.60
2022-11-16T08:09:43.772Z,22.60
2022-11-16T08:12:10.600Z,22.60
2022-11-16T08:14:37.433Z,22.60
2022-11-16T08:17:05.022Z,22.60
2022-11-16T08:19:31.759Z,22.60
2022-11-16T08:21:58.475Z,22.70
2022-11-16T08:24:25.284Z,22.70
2022-11-16T08:26:52.133Z,22.70
2022-11-16T08:29:19.090Z,22.70
2022-11-16T08:31:45.914Z,22.70
2022-11-16T08:34:12.646Z,22.70
2022-11-16T08:36:39.322Z,22.70
2022-11-16T08:39:06.031Z,22.70
2022-11-16T08:41:32.786Z,22.70
2022-11-16T08:44:01.144Z,22.70
2022-11-16T08:46:27.980Z,22.70
2022-11-16T08:48:58.289Z,22.70
2022-11-16T08:51:25.905Z,22.70
2022-11-16T08:53:57.205Z,22.80
2022-11-16T08:56:26.177Z,22.70
2022-11-16T08:58:58.166Z,22.70
2022-11-16T09:01:27.642Z,22.70
2022-11-16T09:03:55.053Z,22.80
2022-11-16T09:06:23.168Z,22.70
2022-11-16T09:08:50.384Z,22.80
2022-11-16T09:11:21.691Z,22.70
2022-11-16T09:13:50.688Z,22.80
2022-11-16T09:16:20.744Z,22.80
2022-11-16T09:18:48.911Z,22.80
2022-11-16T09:21:26.716Z,22.80
2022-11-16T09:23:54.504Z,22.70
2022-11-16T09:26:23.094Z,22.80
2022-11-16T09:28:58.194Z,22.80
2022-11-16T09:31:27.391Z,22.80
2022-11-16T09:33:58.140Z,22.80
2022-11-16T09:36:26.067Z,22.80
2022-11-16T09:39:23.780Z,22.80
2022-11-16T09:41:56.694Z,22.80
2022-11-16T09:44:26.953Z,22.80
2022-11-16T09:46:57.379Z,22.80
2022-11-16T09:49:49.062Z,22.80
2022-11-16T09:52:41.562Z,22.80
2022-11-16T09:55:35.939Z,22.80
2022-11-16T09:58:11.864Z,22.80
2022-11-16T10:00:43.746Z,22.80
2022-11-16T10:03:13.494Z,22.80
2022-11-16T10:05:45.557Z,22.80
2022-11-16T10:08:37.288Z,22.80
2022-11-16T10:11:19.890Z,22.80
2022-11-16T10:13:57.048Z,22.80
2022-11-16T10:16:46.023Z,22.80
2022-11-16T10:19:36.061Z,22.80
2022-11-16T10:22:25.720Z,22.80
2022-11-16T10:25:17.722Z,22.80
2022-11-16T10:28:19.547Z,22.80
2022-11-16T10:31:20.409Z,22.80
2022-11-16T10:33:50.676Z,22.80
2022-11-16T10:36:19.102Z,22.80
2022-11-16T10:38:45.886Z,22.80
2022-11-16T10:41:25.980Z,22.80
2022-11-16T10:43:53.462Z,22.80
2022-11-16T10:46:22.374Z,22.80
2022-11-16T10:49:02.833Z,22.80
2022-11-16T10:51:29.535Z,22.80
2022-11-16T10:53:57.103Z,22.80
2022-11-16T10:56:56.929Z,22.80
2022-11-16T10:59:41.631Z,22.80
2022-11-16T11:02:26.269Z,22.80
2022-11-16T11:05:05.290Z,22.80
2022-11-16T11:07:33.875Z,22.80
2022-11-16T11:10:00.635Z,22.80
2022-11-16T11:12:39.774Z,22.80
2022-11-16T11:15:13.372Z,22.80
2022-11-16T11:17:45.410Z,22.80
2022-11-16T11:20:15.099Z,22.80
2022-11-16T11:22:49.249Z,22.80
2022-11-16T11:25:20.486Z,22.80
2022-11-16T11:27:47.203Z,22.80
2022-11-16T11:30:21.574Z,22.80
2022-11-16T11:32:48.912Z,22.80
2022-11-16T11:35:28.186Z,22.80
2022-11-16T11:37:57.363Z,22.80
2022-11-16T11:40:24.134Z,22.80
2022-11-16T11:42:53.610Z,22.80
2022-11-16T11:45:24.175Z,22.80
2022-11-16T11:48:14.457Z,22.80
2022-11-16T11:50:59.599Z,22.80
2022-11-16T11:53:38.575Z,22.80
2022-11-16T11:56:05.798Z,22.80
2022-11-16T11:58:36.666Z,22.80
2022-11-16T12:01:31.556Z,22.80
2022-11-16T12:04:12.212Z,22.80
2022-11-16T12:06:54.225Z,22.80
2022-11-16T12:09:45.082Z,22.80
2022-11-16T12:12:33.337Z,22.80
2022-11-16T12:15:08.705Z,22.80
2022-11-16T12:18:00.559Z,22.80
2022-11-16T12:20:41.644Z,22.80
2022-11-16T12:23:23.068Z,22.80
2022-11-16T12:26:14.290Z,22.80
2022-11-16T12:28:51.216Z,22.80
2022-11-16T12:31:24.126Z,22.80
2022-11-16T12:33:59.574Z,22.80
2022-11-16T12:37:04.547Z,22.80
2022-11-16T12:39:51.828Z,22.80
2022-11-16T12:42:30.804Z,22.80
2022-11-16T12:45:16.209Z,22.80
2022-11-16T12:48:03.845Z,22.80
2022-11-16T12:50:47.689Z,22.80
2022-11-16T12:53:40.483Z,22.80
2022-11-16T12:56:25.120Z,22.80
2022-11-16T12:59:25.631Z,22.80
2022-11-16T13:02:17.315Z,22.80
2022-11-16T13:04:50.607Z,22.80
2022-11-16T13:07:24.955Z,22.80
2022-11-16T13:10:02.778Z,22.80
2022-11-16T13:12:31.728Z,22.80
2022-11-16T13:15:01.958Z,22.80
2022-11-16T13:17:33.268Z,22.80
2022-11-16T13:20:29.802Z,22.80
2022-11-16T13:23:31.840Z,22.80
2022-11-16T13:26:31.044Z,22.80
2022-11-16T13:29:37.521Z,22.80
2022-11-16T13:32:37.152Z,22.80
2022-11-16T13:35:05.911Z,22.80
2022-11-16T13:37:38.553Z,22.80
2022-11-16T13:40:05.525Z,22.80
2022-11-16T13:42:57.649Z,22.80
2022-11-16T13:45:31.969Z,22.80
2022-11-16T13:47:59.469Z,22.80
2022-11-16T13:50:47.765Z,22.80
2022-11-16T13:56:10.471Z,22.80
2022-11-16T13:58:45.696Z,22.80
2022-11-16T14:01:16.583Z,22.80
2022-11-16T14:03:45.802Z,22.80
2022-11-16T14:06:24.422Z,22.80
2022-11-16T14:08:55.649Z,22.80
2022-11-16T14:11:38.671Z,22.80
2022-11-16T14:14:10.228Z,22.80
2022-11-16T14:16:44.627Z,22.80
2022-11-16T14:19:49.172Z,22.80
2022-11-16T14:22:44.502Z,22.80
2022-11-16T14:25:17.049Z,22.80
2022-11-16T14:28:06.676Z,22.80
2022-11-16T14:31:03.953Z,22.80
2022-11-16T14:33:36.770Z,22.80
2022-11-16T14:36:07.138Z,22.80
2022-11-16T14:38:42.649Z,22.80
2022-11-16T14:41:28.011Z,22.80
2022-11-16T14:43:56.720Z,22.80
2022-11-16T14:46:27.879Z,22.80
2022-11-16T14:48:57.192Z,22.80
2022-11-16T14:51:26.614Z,22.80
2022-11-16T14:53:57.489Z,22.70
2022-11-16T14:56:24.169Z,22.80
2022-11-16T14:58:55.418Z,22.70
2022-11-16T15:01:33.941Z,22.80
2022-11-16T15:04:05.347Z,22.70
2022-11-16T15:06:45.569Z,22.80
2022-11-16T15:09:36.198Z,22.80
2022-11-16T15:12:24.728Z,22.80
2022-11-16T15:14:56.858Z,22.70
2022-11-16T15:17:31.702Z,22.80
2022-11-16T15:20:14.873Z,22.70
2022-11-16T15:22:44.604Z,22.70
2022-11-16T15:25:41.589Z,22.70
2022-11-16T15:28:17.869Z,22.70
2022-11-16T15:31:05.565Z,22.70
2022-11-16T15:33:36.756Z,22.70
2022-11-16T15:36:23.367Z,22.70
2022-11-16T15:38:55.811Z,22.70
2022-11-16T15:41:24.183Z,22.70
2022-11-16T15:44:13.150Z,22.70
2022-11-16T15:46:42.412Z,22.70
2022-11-16T15:49:18.880Z,22.70
2022-11-16T15:51:45.590Z,22.70
2022-11-16T15:54:29.160Z,22.70
2022-11-16T15:57:04.683Z,22.70
2022-11-16T15:59:33.690Z,22.70
2022-11-16T16:02:00.611Z,22.70
2022-11-16T16:04:28.915Z,22.70
2022-11-16T16:06:57.805Z,22.70
2022-11-16T16:09:30.695Z,22.70
2022-11-16T16:12:23.408Z,22.70
2022-11-16T16:14:52.180Z,22.70
2022-11-16T16:17:30.552Z,22.60
2022-11-16T16:20:00.028Z,22.70
2022-11-16T16:22:28.694Z,22.70
2022-11-16T16:24:55.699Z,22.70
2022-11-16T16:27:25.513Z,22.60
2022-11-16T16:29:53.946Z,22.70
2022-11-16T16:32:31.991Z,22.70
2022-11-16T16:35:04.311Z,22.70
2022-11-16T16:37:32.575Z,22.70
2022-11-16T16:39:59.684Z,22.70
2022-11-16T16:42:26.657Z,22.70
2022-11-16T16:44:53.719Z,22.70
2022-11-16T16:47:20.993Z,22.70
2022-11-16T16:49:50.864Z,22.60
2022-11-16T16:52:18.068Z,22.60
2022-11-16T16:54:44.868Z,22.60
2022-11-16T16:57:17.949Z,22.60
2022-11-16T16:59:45.699Z,22.70
2022-11-16T17:02:12.942Z,22.60
2022-11-16T17:04:40.301Z,22.70
2022-11-16T17:07:07.030Z,22.70
2022-11-16T17:09:33.710Z,22.70
2022-11-16T17:12:00.450Z,22.60
2022-11-16T17:14:27.252Z,22.60
2022-11-16T17:16:53.940Z,22.60
2022-11-16T17:19:23.331Z,22.60
2022-11-16T17:21:52.017Z,22.60
2022-11-16T17:24:18.731Z,22.60
2022-11-16T17:26:48.333Z,22.60
2022-11-16T17:29:15.587Z,22.60
2022-11-16T17:31:44.079Z,22.60
2022-11-16T17:34:13.875Z,22.60
2022-11-16T17:36:41.657Z,22.60
2022-11-16T17:39:08.611Z,22.60
2022-11-16T17:41:35.291Z,22.60
2022-11-16T17:44:02.279Z,22.60
2022-11-16T17:46:29.160Z,22.60
2022-11-16T17:48:56.303Z,22.60
2022-11-16T17:51:25.053Z,22.60
2022-11-16T17:53:52.093Z,22.60
2022-11-16T17:56:21.172Z,22.60
2022-11-16T17:58:49.979Z,22.60
2022-11-16T18:01:17.034Z,22.60
2022-11-16T18:03:44.394Z,22.60
2022-11-16T18:06:17.015Z,22.60
2022-11-16T18:08:44.124Z,22.60
2022-11-16T18:11:19.677Z,22.60
2022-11-16T18:13:47.008Z,22.60
2022-11-16T18:16:18.251Z,22.60
2022-11-16T18:18:46.627Z,22.60
2022-11-16T18:21:20.061Z,22.60
2022-11-16T18:23:48.049Z,22.60
2022-11-16T18:26:17.256Z,22.60
2022-11-16T18:28:48.018Z,22.60
2022-11-16T18:31:21.035Z,22.60
2022-11-16T18:33:50.733Z,22.60
2022-11-16T18:36:19.323Z,22.60
2022-11-16T18:38:46.177Z,22.60
2022-11-16T18:41:12.810Z,22.60
2022-11-16T18:43:57.679Z,22.60
2022-11-16T18:46:30.263Z,22.60
2022-11-16T18:48:57.570Z,22.60
2022-11-16T18:51:26.978Z,22.60
2022-11-16T18:53:54.094Z,22.60
2022-11-16T18:56:21.213Z,22.60
2022-11-16T18:58:50.810Z,22.60
2022-11-16T19:01:19.567Z,22.60
2022-11-16T19:03:46.377Z,22.60
2022-11-16T19:06:14.842Z,22.50
2022-11-16T19:08:42.606Z,22.60
2022-11-16T19:11:12.327Z,22.60
2022-11-16T19:13:40.785Z,22.60
2022-11-16T19:16:09.212Z,22.60
2022-11-16T19:18:37.175Z,22.60
2022-11-16T19:21:11.668Z,22.60
2022-11-16T19:23:39.642Z,22.60
2022-11-16T19:26:07.092Z,22.60
2022-11-16T19:28:38.151Z,22.60
2022-11-16T19:31:34.303Z,22.70
2022-11-16T19:34:06.993Z,22.70
2022-11-16T19:36:37.139Z,22.70
2022-11-16T19:39:04.903Z,22.70
2022-11-16T19:41:32.222Z,22.80
2022-11-16T19:44:01.533Z,22.80
2022-11-16T19:46:31.115Z,22.80
2022-11-16T19:48:58.799Z,22.80
2022-11-16T19:51:30.684Z,22.80
2022-11-16T19:53:59.360Z,22.80
2022-11-16T19:56:26.465Z,22.90
2022-11-16T19:58:53.158Z,22.90
2022-11-16T20:01:22.960Z,22.90
2022-11-16T20:03:50.129Z,22.90
2022-11-16T20:06:22.124Z,22.90
2022-11-16T20:08:54.132Z,22.90
2022-11-16T20:11:23.676Z,22.80
2022-11-16T20:13:52.292Z,22.50
2022-11-16T20:16:20.722Z,22.40
2022-11-16T20:18:47.705Z,22.20
2022-11-16T20:21:42.105Z,22.20
2022-11-16T20:24:15.846Z,22.20
2022-11-16T20:26:44.973Z,22.20
2022-11-16T20:29:12.948Z,22.30
2022-11-16T20:31:42.580Z,22.40
2022-11-16T20:34:14.115Z,22.40
2022-11-16T20:36:43.322Z,22.50
2022-11-16T20:39:15.400Z,22.50
2022-11-16T20:41:43.768Z,22.60
2022-11-16T20:44:17.723Z,22.60
2022-11-16T20:46:45.162Z,22.60
2022-11-16T20:49:11.979Z,22.70
2022-11-16T20:51:38.682Z,22.70
2022-11-16T20:54:05.710Z,22.80
2022-11-16T20:56:32.419Z,22.80
2022-11-16T20:58:59.526Z,22.80
2022-11-16T21:01:33.189Z,22.70
2022-11-16T21:04:03.477Z,22.50
2022-11-16T21:06:31.034Z,22.50
2022-11-16T21:08:58.112Z,22.40
2022-11-16T21:11:27.032Z,22.40
2022-11-16T21:14:12.693Z,22.40
2022-11-16T21:16:39.756Z,22.40
2022-11-16T21:19:06.615Z,22.40
2022-11-16T21:21:33.818Z,22.40
2022-11-16T21:24:00.578Z,22.30
2022-11-16T21:26:29.395Z,22.40
2022-11-16T21:28:57.760Z,22.40
2022-11-16T21:31:27.026Z,22.30
2022-11-16T21:33:54.717Z,22.30
2022-11-16T21:36:24.249Z,22.30
2022-11-16T21:38:51.833Z,22.30
2022-11-16T21:41:19.877Z,22.30
2022-11-16T21:43:46.649Z,22.20
2022-11-16T21:46:18.874Z,22.20
2022-11-16T21:48:47.777Z,22.20
2022-11-16T21:51:20.003Z,22.20
2022-11-16T21:53:47.444Z,22.20
2022-11-16T21:56:17.071Z,22.20
2022-11-16T21:58:44.709Z,22.20
2022-11-16T22:01:13.138Z,22.20
2022-11-16T22:03:40.175Z,22.10
2022-11-16T22:06:30.499Z,22.10
2022-11-16T22:08:57.177Z,22.10
2022-11-16T22:11:23.947Z,22.10
2022-11-16T22:13:50.939Z,22.10
2022-11-16T22:16:19.527Z,22.10
2022-11-16T22:18:46.526Z,22.10
2022-11-16T22:21:13.240Z,22.00
2022-11-16T22:23:40.252Z,22.00
2022-11-16T22:26:09.791Z,22.00
2022-11-16T22:28:37.328Z,22.00
2022-11-16T22:31:12.981Z,22.00
2022-11-16T22:33:40.543Z,22.00
2022-11-16T22:36:09.286Z,22.00
2022-11-16T22:38:36.440Z,22.00
2022-11-16T22:41:03.355Z,22.00
2022-11-16T22:43:31.272Z,21.90
2022-11-16T22:45:59.207Z,21.90
2022-11-16T22:48:39.887Z,21.90
2022-11-16T22:51:23.498Z,21.90
2022-11-16T22:53:54.862Z,21.90
2022-11-16T22:56:21.711Z,21.90
2022-11-16T22:58:48.389Z,21.90
2022-11-16T23:01:15.469Z,21.80
2022-11-16T23:03:42.320Z,21.80
2022-11-16T23:06:09.394Z,21.80
2022-11-16T23:08:36.566Z,21.80
2022-11-16T23:11:26.774Z,21.80
2022-11-16T23:14:13.319Z,21.80
2022-11-16T23:16:40.602Z,21.80
2022-11-16T23:19:28.062Z,21.80
2022-11-16T23:22:14.672Z,21.80
2022-11-16T23:25:00.012Z,21.70
2022-11-16T23:27:44.560Z,21.70
2022-11-16T23:30:13.416Z,21.70
2022-11-16T23:32:40.692Z,21.70
2022-11-16T23:35:08.053Z,21.70
2022-11-16T23:37:34.986Z,21.70
2022-11-16T23:40:01.889Z,21.70
2022-11-16T23:42:47.444Z,21.60
2022-11-16T23:45:14.220Z,21.70
2022-11-16T23:47:40.988Z,21.60
2022-11-16T23:50:07.995Z,21.60
2022-11-16T23:52:34.702Z,21.60
2022-11-16T23:55:01.421Z,21.60
2022-11-16T23:57:28.094Z,21.60
2022-11-16T23:59:54.752Z,21.60
